River Of Ponds, Canada
Current Conditions -  °F | °C
As of 7:00 AM on Sunday 25 Jan 2015 (Local Time) from CWDH Reporting Station
Clear Clear  
Wind Chill: -6°   Ceiling: Unl
Heat Index:   Visibility: 6mi
Dew Point: -1°   Wind: 38mph
Humidity: 80%   Direction: 120°ESE
Pressure: 28.55"   Gusts: 55mph
Location:  50.53°N, 57.38°W
Report Text: CWDH 251000Z AUTO 12033G48KT 6SM NSC 02/M01 A2855 RMK SLP669 PK WND 12059/// T00181014 P0012 70061 WSI/SWOB
Loading
Personal Weather Stations






























Interactive Weather Map New forecast layout! Learn more

10-Day Weather Forecast

Advertisements
Track Severe Weather on mobile